sensor_id;sensor_type;location;lat;lon;timestamp;pressure;altitude;pressure_sealevel;temperature;humidity
68117;BME280;54909;54.464;18.498;2023-11-19T00:00:53;101900;;;1.89;81
68117;BME280;54909;54.464;18.498;2023-11-19T00:03:55;101900;;;1.86;81
68117;BME280;54909;54.464;18.498;2023-11-19T00:06:56;101900;;;1.93;82
68117;BME280;54909;54.464;18.498;2023-11-19T00:10:08;101900;;;2.07;82
68117;BME280;54909;54.464;18.498;2023-11-19T00:13:11;101900;;;2.16;81
68117;BME280;54909;54.464;18.498;2023-11-19T00:16:13;101900;;;2.22;81
68117;BME280;54909;54.464;18.498;2023-11-19T00:19:18;101900;;;2.25;80
68117;BME280;54909;54.464;18.498;2023-11-19T00:22:19;101900;;;2.33;80
68117;BME280;54909;54.464;18.498;2023-11-19T00:25:23;101900;;;2.37;79
68117;BME280;54909;54.464;18.498;2023-11-19T00:28:30;101900;;;2.37;79
68117;BME280;54909;54.464;18.498;2023-11-19T00:31:32;101900;;;2.47;79
68117;BME280;54909;54.464;18.498;2023-11-19T00:34:33;101900;;;2.53;78
68117;BME280;54909;54.464;18.498;2023-11-19T00:37:34;101900;;;2.60;78
68117;BME280;54909;54.464;18.498;2023-11-19T00:40:35;101900;;;2.71;77
68117;BME280;54909;54.464;18.498;2023-11-19T00:43:37;101900;;;2.68;77
68117;BME280;54909;54.464;18.498;2023-11-19T00:46:39;101900;;;2.57;77
68117;BME280;54909;54.464;18.498;2023-11-19T00:49:40;101900;;;2.58;78
68117;BME280;54909;54.464;18.498;2023-11-19T00:52:43;101900;;;2.61;78
68117;BME280;54909;54.464;18.498;2023-11-19T00:55:45;101900;;;2.67;77
68117;BME280;54909;54.464;18.498;2023-11-19T00:58:46;101900;;;2.79;77
68117;BME280;54909;54.464;18.498;2023-11-19T01:01:56;101900;;;2.69;77
68117;BME280;54909;54.464;18.498;2023-11-19T01:04:57;101900;;;2.75;77
68117;BME280;54909;54.464;18.498;2023-11-19T01:07:59;101800;;;2.76;77
68117;BME280;54909;54.464;18.498;2023-11-19T01:11:08;101800;;;2.72;77
68117;BME280;54909;54.464;18.498;2023-11-19T01:14:09;101800;;;2.80;77
68117;BME280;54909;54.464;18.498;2023-11-19T01:17:11;101800;;;2.82;77
68117;BME280;54909;54.464;18.498;2023-11-19T01:20:20;101800;;;2.61;77
68117;BME280;54909;54.464;18.498;2023-11-19T01:23:21;101800;;;2.59;78
68117;BME280;54909;54.464;18.498;2023-11-19T01:26:22;101800;;;2.54;78
68117;BME280;54909;54.464;18.498;2023-11-19T01:29:33;101800;;;2.53;78
68117;BME280;54909;54.464;18.498;2023-11-19T01:32:35;101800;;;2.49;78
68117;BME280;54909;54.464;18.498;2023-11-19T01:35:37;101800;;;2.45;78
68117;BME280;54909;54.464;18.498;2023-11-19T01:38:45;101800;;;2.41;78
68117;BME280;54909;54.464;18.498;2023-11-19T01:41:47;101800;;;2.46;78
68117;BME280;54909;54.464;18.498;2023-11-19T01:48:02;101800;;;2.43;78
68117;BME280;54909;54.464;18.498;2023-11-19T01:51:08;101800;;;2.44;78
68117;BME280;54909;54.464;18.498;2023-11-19T01:54:10;101800;;;2.44;78
68117;BME280;54909;54.464;18.498;2023-11-19T01:57:13;101800;;;2.52;78
68117;BME280;54909;54.464;18.498;2023-11-19T02:00:15;101800;;;2.53;78
68117;BME280;54909;54.464;18.498;2023-11-19T02:03:17;101800;;;2.44;78
68117;BME280;54909;54.464;18.498;2023-11-19T02:06:24;101800;;;2.52;78
68117;BME280;54909;54.464;18.498;2023-11-19T02:09:27;101700;;;2.57;77
68117;BME280;54909;54.464;18.498;2023-11-19T02:12:28;101700;;;2.44;77
68117;BME280;54909;54.464;18.498;2023-11-19T02:15:36;101700;;;2.54;76
68117;BME280;54909;54.464;18.498;2023-11-19T02:18:37;101700;;;2.31;77
68117;BME280;54909;54.464;18.498;2023-11-19T02:21:39;101700;;;2.27;77
68117;BME280;54909;54.464;18.498;2023-11-19T02:24:51;101700;;;2.09;77
68117;BME280;54909;54.464;18.498;2023-11-19T02:28:02;101700;;;2.05;76
68117;BME280;54909;54.464;18.498;2023-11-19T02:31:05;101700;;;2.01;75
68117;BME280;54909;54.464;18.498;2023-11-19T02:34:10;101700;;;2.01;75
68117;BME280;54909;54.464;18.498;2023-11-19T02:37:13;101700;;;1.98;75
68117;BME280;54909;54.464;18.498;2023-11-19T02:40:15;101700;;;1.97;76
68117;BME280;54909;54.464;18.498;2023-11-19T02:43:18;101700;;;1.96;76
68117;BME280;54909;54.464;18.498;2023-11-19T02:46:20;101700;;;1.97;76
68117;BME280;54909;54.464;18.498;2023-11-19T02:49:21;101700;;;1.99;76
68117;BME280;54909;54.464;18.498;2023-11-19T02:52:25;101700;;;1.99;76
68117;BME280;54909;54.464;18.498;2023-11-19T02:55:27;101700;;;1.98;76
68117;BME280;54909;54.464;18.498;2023-11-19T02:58:36;101600;;;2.01;76
68117;BME280;54909;54.464;18.498;2023-11-19T03:01:38;101700;;;2.03;76
68117;BME280;54909;54.464;18.498;2023-11-19T03:04:49;101600;;;2.01;76
68117;BME280;54909;54.464;18.498;2023-11-19T03:07:50;101700;;;2.02;76
68117;BME280;54909;54.464;18.498;2023-11-19T03:10:52;101600;;;2.01;76
68117;BME280;54909;54.464;18.498;2023-11-19T03:13:54;101600;;;2.00;76
68117;BME280;54909;54.464;18.498;2023-11-19T03:16:56;101600;;;1.99;76
68117;BME280;54909;54.464;18.498;2023-11-19T03:20:06;101600;;;1.97;76
68117;BME280;54909;54.464;18.498;2023-11-19T03:23:10;101600;;;1.94;76
68117;BME280;54909;54.464;18.498;2023-11-19T03:26:11;101600;;;1.88;75
68117;BME280;54909;54.464;18.498;2023-11-19T03:29:16;101600;;;1.81;75
68117;BME280;54909;54.464;18.498;2023-11-19T03:32:17;101600;;;1.72;75
68117;BME280;54909;54.464;18.498;2023-11-19T03:35:18;101600;;;1.63;75
68117;BME280;54909;54.464;18.498;2023-11-19T03:38:28;101600;;;1.57;76
68117;BME280;54909;54.464;18.498;2023-11-19T03:41:29;101600;;;1.48;76
68117;BME280;54909;54.464;18.498;2023-11-19T03:44:31;101600;;;1.46;76
68117;BME280;54909;54.464;18.498;2023-11-19T03:47:40;101600;;;1.40;76
68117;BME280;54909;54.464;18.498;2023-11-19T03:50:42;101600;;;1.41;77
68117;BME280;54909;54.464;18.498;2023-11-19T03:53:43;101600;;;1.38;77
68117;BME280;54909;54.464;18.498;2023-11-19T03:56:52;101500;;;1.38;77
68117;BME280;54909;54.464;18.498;2023-11-19T03:59:54;101500;;;1.29;77
68117;BME280;54909;54.464;18.498;2023-11-19T04:02:56;101600;;;1.29;77
68117;BME280;54909;54.464;18.498;2023-11-19T04:06:05;101500;;;1.28;77
68117;BME280;54909;54.464;18.498;2023-11-19T04:09:06;101500;;;1.41;77
68117;BME280;54909;54.464;18.498;2023-11-19T04:12:08;101500;;;1.46;76
68117;BME280;54909;54.464;18.498;2023-11-19T04:15:16;101500;;;1.46;76
68117;BME280;54909;54.464;18.498;2023-11-19T04:18:18;101500;;;1.39;76
68117;BME280;54909;54.464;18.498;2023-11-19T04:21:19;101500;;;1.41;77
68117;BME280;54909;54.464;18.498;2023-11-19T04:24:20;101500;;;1.42;77
68117;BME280;54909;54.464;18.498;2023-11-19T04:27:21;101500;;;1.46;76
68117;BME280;54909;54.464;18.498;2023-11-19T04:30:23;101500;;;1.36;77
68117;BME280;54909;54.464;18.498;2023-11-19T04:33:24;101500;;;1.39;76
68117;BME280;54909;54.464;18.498;2023-11-19T04:36:26;101500;;;1.32;77
68117;BME280;54909;54.464;18.498;2023-11-19T04:39:31;101500;;;1.34;76
68117;BME280;54909;54.464;18.498;2023-11-19T04:42:32;101500;;;1.59;75
68117;BME280;54909;54.464;18.498;2023-11-19T04:45:34;101500;;;1.52;75
68117;BME280;54909;54.464;18.498;2023-11-19T04:48:35;101500;;;1.37;76
68117;BME280;54909;54.464;18.498;2023-11-19T04:51:40;101400;;;1.38;76
68117;BME280;54909;54.464;18.498;2023-11-19T04:54:43;101400;;;1.33;76
68117;BME280;54909;54.464;18.498;2023-11-19T04:57:45;101400;;;1.52;74
68117;BME280;54909;54.464;18.498;2023-11-19T05:00:46;101400;;;1.45;75
68117;BME280;54909;54.464;18.498;2023-11-19T05:03:47;101400;;;1.41;75
68117;BME280;54909;54.464;18.498;2023-11-19T05:06:48;101400;;;1.38;75
68117;BME280;54909;54.464;18.498;2023-11-19T05:09:50;101400;;;1.28;75
68117;BME280;54909;54.464;18.498;2023-11-19T05:12:57;101400;;;1.27;75
68117;BME280;54909;54.464;18.498;2023-11-19T05:15:58;101400;;;1.25;75
68117;BME280;54909;54.464;18.498;2023-11-19T05:18:59;101400;;;1.15;75
68117;BME280;54909;54.464;18.498;2023-11-19T05:22:09;101400;;;0.98;76
68117;BME280;54909;54.464;18.498;2023-11-19T05:25:10;101400;;;0.99;76
68117;BME280;54909;54.464;18.498;2023-11-19T05:28:11;101400;;;0.98;76
68117;BME280;54909;54.464;18.498;2023-11-19T05:31:21;101400;;;0.96;76
68117;BME280;54909;54.464;18.498;2023-11-19T05:34:22;101400;;;0.92;76
68117;BME280;54909;54.464;18.498;2023-11-19T05:37:25;101400;;;0.88;76
68117;BME280;54909;54.464;18.498;2023-11-19T05:40:34;101400;;;0.82;76
68117;BME280;54909;54.464;18.498;2023-11-19T05:43:35;101400;;;0.80;77
68117;BME280;54909;54.464;18.498;2023-11-19T05:46:38;101400;;;0.78;77
68117;BME280;54909;54.464;18.498;2023-11-19T05:49:47;101400;;;0.72;77
68117;BME280;54909;54.464;18.498;2023-11-19T05:52:50;101400;;;0.70;77
68117;BME280;54909;54.464;18.498;2023-11-19T05:55:53;101400;;;0.71;77
68117;BME280;54909;54.464;18.498;2023-11-19T05:58:58;101400;;;0.66;77
68117;BME280;54909;54.464;18.498;2023-11-19T06:02:09;101400;;;0.64;78
68117;BME280;54909;54.464;18.498;2023-11-19T06:05:10;101400;;;0.62;78
68117;BME280;54909;54.464;18.498;2023-11-19T06:08:11;101400;;;0.58;78
68117;BME280;54909;54.464;18.498;2023-11-19T06:11:15;101300;;;0.58;78
68117;BME280;54909;54.464;18.498;2023-11-19T06:14:20;101300;;;0.54;78
68117;BME280;54909;54.464;18.498;2023-11-19T06:17:23;101300;;;0.52;78
68117;BME280;54909;54.464;18.498;2023-11-19T06:20:24;101300;;;0.50;78
68117;BME280;54909;54.464;18.498;2023-11-19T06:23:25;101400;;;0.50;78
68117;BME280;54909;54.464;18.498;2023-11-19T06:26:36;101400;;;0.50;79
68117;BME280;54909;54.464;18.498;2023-11-19T06:29:37;101400;;;0.53;78
68117;BME280;54909;54.464;18.498;2023-11-19T06:32:38;101300;;;0.54;78
68117;BME280;54909;54.464;18.498;2023-11-19T06:35:49;101300;;;0.50;78
68117;BME280;54909;54.464;18.498;2023-11-19T06:38:50;101300;;;0.55;78
68117;BME280;54909;54.464;18.498;2023-11-19T06:41:52;101300;;;0.65;77
68117;BME280;54909;54.464;18.498;2023-11-19T06:45:02;101300;;;0.57;77
68117;BME280;54909;54.464;18.498;2023-11-19T06:48:05;101300;;;0.53;78
68117;BME280;54909;54.464;18.498;2023-11-19T06:51:06;101300;;;0.53;77
68117;BME280;54909;54.464;18.498;2023-11-19T06:54:12;101300;;;0.58;77
68117;BME280;54909;54.464;18.498;2023-11-19T06:57:14;101300;;;0.60;77
68117;BME280;54909;54.464;18.498;2023-11-19T07:00:16;101300;;;0.68;76
68117;BME280;54909;54.464;18.498;2023-11-19T07:03:25;101300;;;0.69;76
68117;BME280;54909;54.464;18.498;2023-11-19T07:06:26;101300;;;0.70;76
68117;BME280;54909;54.464;18.498;2023-11-19T07:09:27;101300;;;0.74;76
68117;BME280;54909;54.464;18.498;2023-11-19T07:12:37;101300;;;0.76;76
68117;BME280;54909;54.464;18.498;2023-11-19T07:15:39;101300;;;0.85;76
68117;BME280;54909;54.464;18.498;2023-11-19T07:18:40;101300;;;0.94;76
68117;BME280;54909;54.464;18.498;2023-11-19T07:21:48;101300;;;1.01;75
68117;BME280;54909;54.464;18.498;2023-11-19T07:24:50;101300;;;1.00;75
68117;BME280;54909;54.464;18.498;2023-11-19T07:27:51;101300;;;1.07;75
68117;BME280;54909;54.464;18.498;2023-11-19T07:31:01;101300;;;1.14;75
68117;BME280;54909;54.464;18.498;2023-11-19T07:34:03;101300;;;1.32;74
68117;BME280;54909;54.464;18.498;2023-11-19T07:37:07;101300;;;1.28;74
68117;BME280;54909;54.464;18.498;2023-11-19T07:40:13;101200;;;1.31;74
68117;BME280;54909;54.464;18.498;2023-11-19T07:43:15;101200;;;1.44;73
68117;BME280;54909;54.464;18.498;2023-11-19T07:46:17;101200;;;1.40;74
68117;BME280;54909;54.464;18.498;2023-11-19T07:49:25;101200;;;1.51;74
68117;BME280;54909;54.464;18.498;2023-11-19T07:52:26;101200;;;1.61;74
68117;BME280;54909;54.464;18.498;2023-11-19T07:55:28;101200;;;1.76;73
68117;BME280;54909;54.464;18.498;2023-11-19T07:58:38;101200;;;1.82;73
68117;BME280;54909;54.464;18.498;2023-11-19T08:01:40;101200;;;1.82;73
68117;BME280;54909;54.464;18.498;2023-11-19T08:04:41;101200;;;1.93;73
68117;BME280;54909;54.464;18.498;2023-11-19T08:07:50;101200;;;1.99;73
68117;BME280;54909;54.464;18.498;2023-11-19T08:10:54;101200;;;1.99;72
68117;BME280;54909;54.464;18.498;2023-11-19T08:13:57;101200;;;2.03;73
68117;BME280;54909;54.464;18.498;2023-11-19T08:17:03;101200;;;2.06;72
68117;BME280;54909;54.464;18.498;2023-11-19T08:20:05;101200;;;2.04;72
68117;BME280;54909;54.464;18.498;2023-11-19T08:23:11;101200;;;2.06;72
68117;BME280;54909;54.464;18.498;2023-11-19T08:26:16;101200;;;2.16;72
68117;BME280;54909;54.464;18.498;2023-11-19T08:29:18;101200;;;2.24;72
68117;BME280;54909;54.464;18.498;2023-11-19T08:32:19;101200;;;2.27;72
68117;BME280;54909;54.464;18.498;2023-11-19T08:35:29;101200;;;2.31;71
68117;BME280;54909;54.464;18.498;2023-11-19T08:38:31;101200;;;2.32;71
68117;BME280;54909;54.464;18.498;2023-11-19T08:41:32;101200;;;2.40;71
68117;BME280;54909;54.464;18.498;2023-11-19T08:44:50;101100;;;2.47;71
68117;BME280;54909;54.464;18.498;2023-11-19T08:47:54;101100;;;2.54;71
68117;BME280;54909;54.464;18.498;2023-11-19T08:50:56;101100;;;2.60;70
68117;BME280;54909;54.464;18.498;2023-11-19T08:53:57;101100;;;2.68;70
68117;BME280;54909;54.464;18.498;2023-11-19T08:56:58;101100;;;2.71;70
68117;BME280;54909;54.464;18.498;2023-11-19T09:00:01;101100;;;2.77;70
68117;BME280;54909;54.464;18.498;2023-11-19T09:03:08;101100;;;2.80;70
68117;BME280;54909;54.464;18.498;2023-11-19T09:06:10;101100;;;2.91;69
68117;BME280;54909;54.464;18.498;2023-11-19T09:09:11;101100;;;2.91;69
68117;BME280;54909;54.464;18.498;2023-11-19T09:12:17;101100;;;2.99;69
68117;BME280;54909;54.464;18.498;2023-11-19T09:15:18;101100;;;3.09;68
68117;BME280;54909;54.464;18.498;2023-11-19T09:18:19;101100;;;3.15;67
68117;BME280;54909;54.464;18.498;2023-11-19T09:21:29;101100;;;3.25;67
68117;BME280;54909;54.464;18.498;2023-11-19T09:24:30;101100;;;3.33;66
68117;BME280;54909;54.464;18.498;2023-11-19T09:27:31;101100;;;3.39;66
68117;BME280;54909;54.464;18.498;2023-11-19T09:30:41;101100;;;3.43;66
68117;BME280;54909;54.464;18.498;2023-11-19T09:33:43;101100;;;3.46;65
68117;BME280;54909;54.464;18.498;2023-11-19T09:36:44;101100;;;3.47;66
68117;BME280;54909;54.464;18.498;2023-11-19T09:39:53;101100;;;3.56;65
68117;BME280;54909;54.464;18.498;2023-11-19T09:42:54;101100;;;3.58;65
68117;BME280;54909;54.464;18.498;2023-11-19T09:45:58;101100;;;3.63;66
68117;BME280;54909;54.464;18.498;2023-11-19T09:49:10;101100;;;3.71;66
68117;BME280;54909;54.464;18.498;2023-11-19T09:52:12;101100;;;3.70;66
68117;BME280;54909;54.464;18.498;2023-11-19T09:55:14;101100;;;3.77;66
68117;BME280;54909;54.464;18.498;2023-11-19T09:58:16;101100;;;3.71;66
68117;BME280;54909;54.464;18.498;2023-11-19T10:01:18;101100;;;3.62;66
68117;BME280;54909;54.464;18.498;2023-11-19T10:04:20;101100;;;3.66;66
68117;BME280;54909;54.464;18.498;2023-11-19T10:07:29;101000;;;3.68;67
68117;BME280;54909;54.464;18.498;2023-11-19T10:10:30;101000;;;3.66;67
68117;BME280;54909;54.464;18.498;2023-11-19T10:13:36;101000;;;3.53;67
68117;BME280;54909;54.464;18.498;2023-11-19T10:16:43;101000;;;3.56;68
68117;BME280;54909;54.464;18.498;2023-11-19T10:19:47;101000;;;3.54;68
68117;BME280;54909;54.464;18.498;2023-11-19T10:22:52;101000;;;3.51;68
68117;BME280;54909;54.464;18.498;2023-11-19T10:26:03;101000;;;3.49;68
68117;BME280;54909;54.464;18.498;2023-11-19T10:29:08;101000;;;3.48;68
68117;BME280;54909;54.464;18.498;2023-11-19T10:32:09;101000;;;3.48;68
68117;BME280;54909;54.464;18.498;2023-11-19T10:35:11;101000;;;3.50;68
68117;BME280;54909;54.464;18.498;2023-11-19T10:38:15;101000;;;3.44;68
68117;BME280;54909;54.464;18.498;2023-11-19T10:44:33;101000;;;3.47;67
68117;BME280;54909;54.464;18.498;2023-11-19T10:47:46;101000;;;3.43;68
68117;BME280;54909;54.464;18.498;2023-11-19T10:50:53;100900;;;3.51;68
68117;BME280;54909;54.464;18.498;2023-11-19T10:57:09;100900;;;3.49;68
68117;BME280;54909;54.464;18.498;2023-11-19T11:00:17;100900;;;3.47;68
68117;BME280;54909;54.464;18.498;2023-11-19T11:03:22;100900;;;3.49;68
68117;BME280;54909;54.464;18.498;2023-11-19T11:06:27;100900;;;3.55;68
68117;BME280;54909;54.464;18.498;2023-11-19T11:09:30;100900;;;3.53;67
68117;BME280;54909;54.464;18.498;2023-11-19T11:12:36;100900;;;3.53;67
68117;BME280;54909;54.464;18.498;2023-11-19T11:15:42;100900;;;3.53;67
68117;BME280;54909;54.464;18.498;2023-11-19T11:18:54;100900;;;3.58;68
68117;BME280;54909;54.464;18.498;2023-11-19T11:21:57;100900;;;3.63;68
68117;BME280;54909;54.464;18.498;2023-11-19T11:38:06;100900;;;3.75;67
68117;BME280;54909;54.464;18.498;2023-11-19T11:45:17;100900;;;3.72;68
68117;BME280;54909;54.464;18.498;2023-11-19T11:50:56;100800;;;3.58;68
68117;BME280;54909;54.464;18.498;2023-11-19T11:53:59;100800;;;3.62;68
68117;BME280;54909;54.464;18.498;2023-11-19T11:57:02;100800;;;3.58;68
68117;BME280;54909;54.464;18.498;2023-11-19T12:00:10;100800;;;3.56;68
68117;BME280;54909;54.464;18.498;2023-11-19T12:03:11;100800;;;3.54;68
68117;BME280;54909;54.464;18.498;2023-11-19T12:06:13;100800;;;3.55;68
68117;BME280;54909;54.464;18.498;2023-11-19T12:09:15;100800;;;3.48;69
68117;BME280;54909;54.464;18.498;2023-11-19T12:12:26;100800;;;3.49;70
68117;BME280;54909;54.464;18.498;2023-11-19T12:15:30;100800;;;3.47;70
68117;BME280;54909;54.464;18.498;2023-11-19T12:18:32;100800;;;3.53;70
68117;BME280;54909;54.464;18.498;2023-11-19T12:21:33;100800;;;3.50;70
68117;BME280;54909;54.464;18.498;2023-11-19T12:24:38;100800;;;3.55;70
68117;BME280;54909;54.464;18.498;2023-11-19T12:27:41;100800;;;3.59;70
68117;BME280;54909;54.464;18.498;2023-11-19T12:30:44;100800;;;3.54;71
68117;BME280;54909;54.464;18.498;2023-11-19T12:33:45;100800;;;3.48;71
68117;BME280;54909;54.464;18.498;2023-11-19T12:36:48;100800;;;3.51;71
68117;BME280;54909;54.464;18.498;2023-11-19T12:39:53;100800;;;3.51;71
68117;BME280;54909;54.464;18.498;2023-11-19T12:42:55;100700;;;3.44;71
68117;BME280;54909;54.464;18.498;2023-11-19T12:45:56;100700;;;3.49;71
68117;BME280;54909;54.464;18.498;2023-11-19T12:49:06;100700;;;3.53;71
68117;BME280;54909;54.464;18.498;2023-11-19T12:52:13;100700;;;3.54;71
68117;BME280;54909;54.464;18.498;2023-11-19T12:58:33;100700;;;3.63;71
68117;BME280;54909;54.464;18.498;2023-11-19T13:01:36;100700;;;3.50;71
68117;BME280;54909;54.464;18.498;2023-11-19T13:04:40;100700;;;3.48;71
68117;BME280;54909;54.464;18.498;2023-11-19T13:07:41;100700;;;3.48;71
68117;BME280;54909;54.464;18.498;2023-11-19T13:10:51;100700;;;3.42;71
68117;BME280;54909;54.464;18.498;2023-11-19T13:13:55;100700;;;3.42;71
68117;BME280;54909;54.464;18.498;2023-11-19T13:16:57;100700;;;3.31;71
68117;BME280;54909;54.464;18.498;2023-11-19T13:19:58;100700;;;3.31;71
68117;BME280;54909;54.464;18.498;2023-11-19T13:23:01;100700;;;3.24;71
68117;BME280;54909;54.464;18.498;2023-11-19T13:26:02;100700;;;3.30;71
68117;BME280;54909;54.464;18.498;2023-11-19T13:29:05;100700;;;3.30;71
68117;BME280;54909;54.464;18.498;2023-11-19T13:32:06;100700;;;3.35;71
68117;BME280;54909;54.464;18.498;2023-11-19T13:35:14;100700;;;3.29;71
68117;BME280;54909;54.464;18.498;2023-11-19T13:38:15;100700;;;3.29;72
68117;BME280;54909;54.464;18.498;2023-11-19T13:41:16;100700;;;3.30;71
68117;BME280;54909;54.464;18.498;2023-11-19T13:44:26;100700;;;3.22;72
68117;BME280;54909;54.464;18.498;2023-11-19T13:47:28;100700;;;3.24;72
68117;BME280;54909;54.464;18.498;2023-11-19T13:50:29;100700;;;3.19;73
68117;BME280;54909;54.464;18.498;2023-11-19T13:53:30;100700;;;3.14;73
68117;BME280;54909;54.464;18.498;2023-11-19T13:56:32;100700;;;3.09;73
68117;BME280;54909;54.464;18.498;2023-11-19T13:59:33;100700;;;3.10;73
68117;BME280;54909;54.464;18.498;2023-11-19T14:02:34;100700;;;3.09;74
68117;BME280;54909;54.464;18.498;2023-11-19T14:05:37;100700;;;3.08;73
68117;BME280;54909;54.464;18.498;2023-11-19T14:08:40;100600;;;3.01;74
68117;BME280;54909;54.464;18.498;2023-11-19T14:11:41;100600;;;3.02;74
68117;BME280;54909;54.464;18.498;2023-11-19T14:14:43;100700;;;2.98;74
68117;BME280;54909;54.464;18.498;2023-11-19T14:17:53;100700;;;2.94;74
68117;BME280;54909;54.464;18.498;2023-11-19T14:20:54;100600;;;2.95;75
68117;BME280;54909;54.464;18.498;2023-11-19T14:23:56;100600;;;2.97;75
68117;BME280;54909;54.464;18.498;2023-11-19T14:27:05;100600;;;2.98;75
68117;BME280;54909;54.464;18.498;2023-11-19T14:30:09;100600;;;2.98;75
68117;BME280;54909;54.464;18.498;2023-11-19T14:33:14;100600;;;2.96;75
68117;BME280;54909;54.464;18.498;2023-11-19T14:36:18;100600;;;2.98;75
68117;BME280;54909;54.464;18.498;2023-11-19T14:39:19;100600;;;2.96;75
68117;BME280;54909;54.464;18.498;2023-11-19T14:42:21;100600;;;2.91;76
68117;BME280;54909;54.464;18.498;2023-11-19T14:45:32;100600;;;2.84;76
68117;BME280;54909;54.464;18.498;2023-11-19T14:48:33;100600;;;2.87;76
68117;BME280;54909;54.464;18.498;2023-11-19T14:51:38;100600;;;2.82;76
68117;BME280;54909;54.464;18.498;2023-11-19T14:54:44;100600;;;2.84;77
68117;BME280;54909;54.464;18.498;2023-11-19T14:57:47;100600;;;2.81;77
68117;BME280;54909;54.464;18.498;2023-11-19T15:00:52;100600;;;2.78;77
68117;BME280;54909;54.464;18.498;2023-11-19T15:03:58;100600;;;2.81;77
68117;BME280;54909;54.464;18.498;2023-11-19T15:07:00;100600;;;2.80;77
68117;BME280;54909;54.464;18.498;2023-11-19T15:10:01;100600;;;2.82;77
68117;BME280;54909;54.464;18.498;2023-11-19T15:13:03;100600;;;2.79;77
68117;BME280;54909;54.464;18.498;2023-11-19T15:16:05;100600;;;2.80;78
68117;BME280;54909;54.464;18.498;2023-11-19T15:19:07;100600;;;2.79;78
68117;BME280;54909;54.464;18.498;2023-11-19T15:22:09;100600;;;2.76;78
68117;BME280;54909;54.464;18.498;2023-11-19T15:25:13;100600;;;2.68;79
68117;BME280;54909;54.464;18.498;2023-11-19T15:28:15;100600;;;2.65;79
68117;BME280;54909;54.464;18.498;2023-11-19T15:31:16;100600;;;2.63;80
68117;BME280;54909;54.464;18.498;2023-11-19T15:34:18;100600;;;2.60;80
68117;BME280;54909;54.464;18.498;2023-11-19T15:37:25;100600;;;2.60;80
68117;BME280;54909;54.464;18.498;2023-11-19T15:40:26;100600;;;2.52;80
68117;BME280;54909;54.464;18.498;2023-11-19T15:43:28;100600;;;2.52;81
68117;BME280;54909;54.464;18.498;2023-11-19T15:46:40;100600;;;2.50;80
68117;BME280;54909;54.464;18.498;2023-11-19T15:49:42;100600;;;2.54;80
68117;BME280;54909;54.464;18.498;2023-11-19T15:52:46;100600;;;2.49;80
68117;BME280;54909;54.464;18.498;2023-11-19T15:55:49;100600;;;2.50;81
68117;BME280;54909;54.464;18.498;2023-11-19T15:58:53;100600;;;2.54;81
68117;BME280;54909;54.464;18.498;2023-11-19T16:01:55;100600;;;2.50;81
68117;BME280;54909;54.464;18.498;2023-11-19T16:05:04;100600;;;2.51;81
68117;BME280;54909;54.464;18.498;2023-11-19T16:08:09;100600;;;2.53;80
68117;BME280;54909;54.464;18.498;2023-11-19T16:11:12;100600;;;2.52;81
68117;BME280;54909;54.464;18.498;2023-11-19T16:14:16;100600;;;2.51;80
68117;BME280;54909;54.464;18.498;2023-11-19T16:17:17;100600;;;2.47;80
68117;BME280;54909;54.464;18.498;2023-11-19T16:20:19;100600;;;2.55;80
68117;BME280;54909;54.464;18.498;2023-11-19T16:23:29;100600;;;2.59;80
68117;BME280;54909;54.464;18.498;2023-11-19T16:26:31;100600;;;2.62;80
68117;BME280;54909;54.464;18.498;2023-11-19T16:29:33;100600;;;2.61;80
68117;BME280;54909;54.464;18.498;2023-11-19T16:32:52;100600;;;2.58;80
68117;BME280;54909;54.464;18.498;2023-11-19T16:35:56;100600;;;2.64;78
68117;BME280;54909;54.464;18.498;2023-11-19T16:38:58;100600;;;2.56;79
68117;BME280;54909;54.464;18.498;2023-11-19T16:41:59;100600;;;2.54;79
68117;BME280;54909;54.464;18.498;2023-11-19T16:45:00;100600;;;2.58;78
68117;BME280;54909;54.464;18.498;2023-11-19T16:48:02;100600;;;2.53;79
68117;BME280;54909;54.464;18.498;2023-11-19T16:51:11;100600;;;2.54;78
68117;BME280;54909;54.464;18.498;2023-11-19T16:54:17;100600;;;2.60;78
68117;BME280;54909;54.464;18.498;2023-11-19T16:57:19;100600;;;2.57;78
68117;BME280;54909;54.464;18.498;2023-11-19T17:00:23;100600;;;2.55;79
68117;BME280;54909;54.464;18.498;2023-11-19T17:03:26;100600;;;2.59;78
68117;BME280;54909;54.464;18.498;2023-11-19T17:06:27;100600;;;2.54;79
68117;BME280;54909;54.464;18.498;2023-11-19T17:09:32;100600;;;2.55;78
68117;BME280;54909;54.464;18.498;2023-11-19T17:12:34;100600;;;2.46;79
68117;BME280;54909;54.464;18.498;2023-11-19T17:15:35;100600;;;2.45;79
68117;BME280;54909;54.464;18.498;2023-11-19T17:18:43;100600;;;2.49;79
68117;BME280;54909;54.464;18.498;2023-11-19T17:21:45;100600;;;2.53;79
68117;BME280;54909;54.464;18.498;2023-11-19T17:24:47;100600;;;2.54;79
68117;BME280;54909;54.464;18.498;2023-11-19T17:27:56;100500;;;2.55;79
68117;BME280;54909;54.464;18.498;2023-11-19T17:30:59;100500;;;2.50;78
68117;BME280;54909;54.464;18.498;2023-11-19T17:34:00;100600;;;2.56;78
68117;BME280;54909;54.464;18.498;2023-11-19T17:37:08;100500;;;2.54;78
68117;BME280;54909;54.464;18.498;2023-11-19T17:40:10;100600;;;2.56;78
68117;BME280;54909;54.464;18.498;2023-11-19T17:43:17;100600;;;2.57;78
68117;BME280;54909;54.464;18.498;2023-11-19T17:46:20;100500;;;2.51;78
68117;BME280;54909;54.464;18.498;2023-11-19T17:49:22;100600;;;2.51;78
68117;BME280;54909;54.464;18.498;2023-11-19T17:52:24;100600;;;2.44;79
68117;BME280;54909;54.464;18.498;2023-11-19T17:55:33;100600;;;2.48;79